Time,TemperatureF,DewpointF,PressureIn,WindDirection,WindDirectionDegrees,WindSpeedMPH,WindSpeedGustMPH,Humidity,HourlyPrecipIn,Conditions,Clouds,dailyrainin,SoftwareType,DateUTC
2013-03-06 00:03:00,31.8,6.6,25.13,North,356,3.0,4.0,34,0.00,,,-99.99,FreeWX 2.04,2013-03-06 07:03:00,
2013-03-06 00:08:00,32.5,7.3,25.13,North,354,2.0,5.4,34,0.00,,,-99.99,FreeWX 2.04,2013-03-06 07:08:00,
2013-03-06 00:13:00,32.5,7.3,25.13,North,3,3.0,6.3,34,0.00,,,-99.99,FreeWX 2.04,2013-03-06 07:13:00,
2013-03-06 00:18:00,31.1,6.6,25.13,NNE,16,3.0,5.4,35,0.00,,,-99.99,FreeWX 2.04,2013-03-06 07:18:00,
2013-03-06 00:23:00,32.0,8.1,25.10,NNE,24,4.0,5.8,36,0.00,,,-99.99,FreeWX 2.04,2013-03-06 07:23:00,
2013-03-06 00:28:00,31.6,7.7,25.10,NNE,24,4.0,5.4,36,0.00,,,-99.99,FreeWX 2.04,2013-03-06 07:28:00,
2013-03-06 00:33:00,34.3,9.5,25.10,North,357,4.0,7.4,35,0.00,,,-99.99,FreeWX 2.04,2013-03-06 07:33:00,
2013-03-06 00:38:00,34.7,9.3,25.13,NW,322,4.0,6.7,34,0.00,,,-99.99,FreeWX 2.04,2013-03-06 07:38:00,
2013-03-06 00:43:00,33.8,7.7,25.13,NW,321,4.0,5.8,33,0.00,,,-99.99,FreeWX 2.04,2013-03-06 07:43:00,
2013-03-06 00:48:00,34.3,9.0,25.13,NNW,337,3.0,6.3,34,0.00,,,-99.99,FreeWX 2.04,2013-03-06 07:48:00,
2013-03-06 00:53:00,34.0,8.6,25.10,North,354,4.0,5.4,34,0.00,,,-99.99,FreeWX 2.04,2013-03-06 07:53:00,
2013-03-06 00:58:00,33.1,7.9,25.10,NNE,23,3.0,4.0,34,0.00,,,-99.99,FreeWX 2.04,2013-03-06 07:58:00,
2013-03-06 01:03:00,32.2,7.7,25.10,NE,42,2.0,3.6,35,0.00,,,-99.99,FreeWX 2.04,2013-03-06 08:03:00,
2013-03-06 01:08:00,32.2,8.2,25.10,NE,42,1.0,3.1,36,0.00,,,-99.99,FreeWX 2.04,2013-03-06 08:08:00,
2013-03-06 01:13:00,32.9,10.0,25.10,NE,42,1.0,4.5,38,0.00,,,-99.99,FreeWX 2.04,2013-03-06 08:13:00,
2013-03-06 01:18:00,32.9,10.0,25.10,NE,42,2.0,4.0,38,0.00,,,-99.99,FreeWX 2.04,2013-03-06 08:18:00,
2013-03-06 01:23:00,32.0,9.3,25.10,NE,42,2.0,4.5,38,0.00,,,-99.99,FreeWX 2.04,2013-03-06 08:23:00,
2013-03-06 01:28:00,32.7,11.1,25.10,NE,42,3.0,4.5,40,0.00,,,-99.99,FreeWX 2.04,2013-03-06 08:28:00,
2013-03-06 01:33:00,32.2,10.0,25.10,NNE,30,3.0,5.4,39,0.00,,,-99.99,FreeWX 2.04,2013-03-06 08:33:00,
2013-03-06 01:38:00,30.6,9.1,25.10,NNE,16,4.0,5.4,40,0.00,,,-99.99,FreeWX 2.04,2013-03-06 08:38:00,
2013-03-06 01:44:00,30.9,10.0,25.10,NNE,17,3.0,4.5,41,0.00,,,-99.99,FreeWX 2.04,2013-03-06 08:44:00,
2013-03-06 01:49:00,30.4,9.5,25.10,NNE,18,2.0,3.6,41,0.00,,,-99.99,FreeWX 2.04,2013-03-06 08:49:00,
2013-03-06 01:54:00,32.7,12.2,25.10,North,0,3.0,6.3,42,0.00,,,-99.99,FreeWX 2.04,2013-03-06 08:54:00,
2013-03-06 01:59:00,33.4,12.4,25.10,NNW,336,4.0,6.9,41,0.00,,,-99.99,FreeWX 2.04,2013-03-06 08:59:00,
2013-03-06 02:04:00,31.3,9.9,25.10,NNW,344,4.0,4.9,40,0.00,,,-99.99,FreeWX 2.04,2013-03-06 09:04:00,
2013-03-06 02:09:00,29.5,8.8,25.10,North,8,3.0,4.9,41,0.00,,,-99.99,FreeWX 2.04,2013-03-06 09:09:00,
2013-03-06 02:14:00,30.0,10.2,25.10,NNE,20,3.0,4.5,43,0.00,,,-99.99,FreeWX 2.04,2013-03-06 09:14:00,
2013-03-06 02:19:00,30.6,10.8,25.10,NNE,21,3.0,4.5,43,0.00,,,-99.99,FreeWX 2.04,2013-03-06 09:19:00,
2013-03-06 02:24:00,29.5,9.9,25.10,NNE,21,2.0,3.6,43,0.00,,,-99.99,FreeWX 2.04,2013-03-06 09:24:00,
2013-03-06 02:29:00,29.5,10.2,25.10,NNE,21,2.0,3.6,44,0.00,,,-99.99,FreeWX 2.04,2013-03-06 09:29:00,
2013-03-06 02:34:00,29.1,10.4,25.10,NNE,21,1.0,4.5,45,0.00,,,-99.99,FreeWX 2.04,2013-03-06 09:34:00,
2013-03-06 02:39:00,29.1,10.4,25.10,North,-999,0.0,3.6,45,0.00,,,-99.99,FreeWX 2.04,2013-03-06 09:39:00,
2013-03-06 02:44:00,29.5,10.8,25.10,North,-999,0.0,3.6,45,0.00,,,-99.99,FreeWX 2.04,2013-03-06 09:44:00,
2013-03-06 02:49:00,29.5,10.8,25.07,NNE,22,2.0,4.0,45,0.00,,,-99.99,FreeWX 2.04,2013-03-06 09:49:00,
2013-03-06 02:54:00,30.4,11.7,25.07,NNE,21,4.0,5.8,45,0.00,,,-99.99,FreeWX 2.04,2013-03-06 09:54:00,
2013-03-06 02:59:00,29.7,10.4,25.07,NNE,16,4.0,5.8,44,0.00,,,-99.99,FreeWX 2.04,2013-03-06 09:59:00,
2013-03-06 03:04:00,31.5,12.0,25.07,North,7,4.0,7.8,44,0.00,,,-99.99,FreeWX 2.04,2013-03-06 10:04:00,
2013-03-06 03:09:00,32.4,12.4,25.07,North,354,5.0,9.6,43,0.00,,,-99.99,FreeWX 2.04,2013-03-06 10:09:00,
2013-03-06 03:14:00,32.5,12.0,25.07,NNW,345,6.0,9.2,42,0.00,,,-99.99,FreeWX 2.04,2013-03-06 10:14:00,
2013-03-06 03:19:00,31.6,11.1,25.07,North,350,5.0,6.3,42,0.00,,,-99.99,FreeWX 2.04,2013-03-06 10:19:00,
2013-03-06 03:24:00,30.7,10.4,25.07,North,356,3.0,3.6,42,0.00,,,-99.99,FreeWX 2.04,2013-03-06 10:24:00,
2013-03-06 03:29:00,29.7,9.9,25.07,North,356,2.0,4.0,43,0.00,,,-99.99,FreeWX 2.04,2013-03-06 10:29:00,
2013-03-06 03:34:00,29.1,10.0,25.07,North,356,2.0,4.0,44,0.00,,,-99.99,FreeWX 2.04,2013-03-06 10:34:00,
2013-03-06 03:39:00,29.5,10.8,25.07,North,356,2.0,3.6,45,0.00,,,-99.99,FreeWX 2.04,2013-03-06 10:39:00,
2013-03-06 03:44:00,30.0,11.3,25.07,North,356,2.0,4.0,45,0.00,,,-99.99,FreeWX 2.04,2013-03-06 10:44:00,
2013-03-06 03:49:00,30.2,11.5,25.07,North,356,1.0,3.1,45,0.00,,,-99.99,FreeWX 2.04,2013-03-06 10:49:00,
2013-03-06 03:54:00,30.6,11.8,25.07,North,356,2.0,5.4,45,0.00,,,-99.99,FreeWX 2.04,2013-03-06 10:54:00,
2013-03-06 03:59:00,30.4,11.7,25.07,North,356,3.0,4.0,45,0.00,,,-99.99,FreeWX 2.04,2013-03-06 10:59:00,
2013-03-06 04:04:00,29.7,10.9,25.07,North,356,3.0,4.0,45,0.00,,,-99.99,FreeWX 2.04,2013-03-06 11:04:00,
2013-03-06 04:09:00,28.4,10.2,25.07,North,356,2.0,4.0,46,0.00,,,-99.99,FreeWX 2.04,2013-03-06 11:09:00,
2013-03-06 04:14:00,28.0,10.4,25.07,North,356,1.0,3.6,47,0.00,,,-99.99,FreeWX 2.04,2013-03-06 11:14:00,
2013-03-06 04:19:00,27.5,10.4,25.07,North,356,1.0,4.5,48,0.00,,,-99.99,FreeWX 2.04,2013-03-06 11:19:00,
2013-03-06 04:24:00,27.9,11.7,25.07,North,356,1.0,3.6,50,0.00,,,-99.99,FreeWX 2.04,2013-03-06 11:24:00,
2013-03-06 04:29:00,27.9,11.7,25.07,North,-999,0.0,3.6,50,0.00,,,-99.99,FreeWX 2.04,2013-03-06 11:29:00,
2013-03-06 04:34:00,27.7,11.5,25.07,North,-999,0.0,4.5,50,0.00,,,-99.99,FreeWX 2.04,2013-03-06 11:34:00,
2013-03-06 04:39:00,29.7,13.3,25.07,North,351,2.0,6.3,50,0.00,,,-99.99,FreeWX 2.04,2013-03-06 11:39:00,
2013-03-06 04:44:00,30.7,12.9,25.07,NNW,333,3.0,6.3,47,0.00,,,-99.99,FreeWX 2.04,2013-03-06 11:44:00,
2013-03-06 04:49:00,28.9,10.8,25.07,NW,319,3.0,4.5,46,0.00,,,-99.99,FreeWX 2.04,2013-03-06 11:49:00,
2013-03-06 04:54:00,27.9,10.2,25.07,NW,319,2.0,3.6,47,0.00,,,-99.99,FreeWX 2.04,2013-03-06 11:54:00,
2013-03-06 04:59:00,27.5,10.9,25.07,NW,319,1.0,4.0,49,0.00,,,-99.99,FreeWX 2.04,2013-03-06 11:59:00,
2013-03-06 05:04:00,27.7,11.5,25.04,North,-999,0.0,0.0,50,0.00,,,-99.99,FreeWX 2.04,2013-03-06 12:04:00,
2013-03-06 05:09:00,28.0,11.8,25.04,North,-999,0.0,2.7,50,0.00,,,-99.99,FreeWX 2.04,2013-03-06 12:09:00,
2013-03-06 05:14:00,27.7,11.5,25.04,North,-999,0.0,0.0,50,0.00,,,-99.99,FreeWX 2.04,2013-03-06 12:14:00,
2013-03-06 05:19:00,27.1,11.5,25.07,North,-999,0.0,2.7,51,0.00,,,-99.99,FreeWX 2.04,2013-03-06 12:19:00,
2013-03-06 05:24:00,26.6,10.9,25.07,NW,319,1.0,4.5,51,0.00,,,-99.99,FreeWX 2.04,2013-03-06 12:24:00,
2013-03-06 05:29:00,27.0,11.7,25.07,NW,319,3.0,4.0,52,0.00,,,-99.99,FreeWX 2.04,2013-03-06 12:29:00,
2013-03-06 05:34:00,27.1,11.8,25.04,NW,319,2.0,4.0,52,0.00,,,-99.99,FreeWX 2.04,2013-03-06 12:34:00,
2013-03-06 05:39:00,27.1,11.8,25.04,North,-999,0.0,0.0,52,0.00,,,-99.99,FreeWX 2.04,2013-03-06 12:39:00,
2013-03-06 05:44:00,27.5,12.2,25.04,North,-999,0.0,3.6,52,0.00,,,-99.99,FreeWX 2.04,2013-03-06 12:44:00,
2013-03-06 05:49:00,27.3,12.0,25.04,North,-999,0.0,3.6,52,0.00,,,-99.99,FreeWX 2.04,2013-03-06 12:49:00,
2013-03-06 05:54:00,26.2,11.1,25.04,NNW,335,2.0,5.4,52,0.00,,,-99.99,FreeWX 2.04,2013-03-06 12:54:00,
2013-03-06 05:59:00,26.2,11.1,25.04,NNE,21,2.0,3.6,52,0.00,,,-99.99,FreeWX 2.04,2013-03-06 12:59:00,
2013-03-06 06:04:00,26.6,11.8,25.04,NE,39,1.0,3.6,53,0.00,,,-99.99,FreeWX 2.04,2013-03-06 13:04:00,
2013-03-06 06:09:00,26.8,12.0,25.04,NE,39,1.0,4.5,53,0.00,,,-99.99,FreeWX 2.04,2013-03-06 13:09:00,
2013-03-06 06:14:00,26.8,12.0,25.04,North,-999,0.0,0.0,53,0.00,,,-99.99,FreeWX 2.04,2013-03-06 13:14:00,
2013-03-06 06:19:00,26.6,11.8,25.04,North,-999,0.0,4.9,53,0.00,,,-99.99,FreeWX 2.04,2013-03-06 13:19:00,
2013-03-06 06:24:00,27.1,12.4,25.04,North,-999,0.0,3.1,53,0.00,,,-99.99,FreeWX 2.04,2013-03-06 13:24:00,
2013-03-06 06:29:00,25.7,10.6,25.04,NNE,33,1.0,4.9,52,0.00,,,-99.99,FreeWX 2.04,2013-03-06 13:29:00,
2013-03-06 06:34:00,25.7,10.9,25.04,NNE,33,1.0,0.0,53,0.00,,,-99.99,FreeWX 2.04,2013-03-06 13:34:00,
2013-03-06 06:39:00,25.3,11.1,25.04,NNE,32,1.0,4.0,54,0.00,,,-99.99,FreeWX 2.04,2013-03-06 13:39:00,
2013-03-06 06:44:00,26.1,11.7,25.04,NNE,32,1.0,4.0,54,0.00,,,-99.99,FreeWX 2.04,2013-03-06 13:44:00,
2013-03-06 06:49:00,27.5,12.6,25.04,NNE,33,1.0,4.9,53,0.00,,,-99.99,FreeWX 2.04,2013-03-06 13:49:00,
2013-03-06 06:54:00,26.1,10.9,25.04,NE,36,2.0,5.4,52,0.00,,,-99.99,FreeWX 2.04,2013-03-06 13:54:00,
2013-03-06 06:59:00,26.2,11.5,25.04,NE,40,2.0,4.5,53,0.00,,,-99.99,FreeWX 2.04,2013-03-06 13:59:00,
2013-03-06 07:04:00,26.1,11.3,25.04,NE,41,1.0,0.0,53,0.00,,,-99.99,FreeWX 2.04,2013-03-06 14:04:00,
2013-03-06 07:09:00,26.1,11.7,25.04,North,-999,0.0,4.0,54,0.00,,,-99.99,FreeWX 2.04,2013-03-06 14:09:00,
2013-03-06 07:14:00,26.1,11.7,25.04,NE,49,1.0,5.4,54,0.00,,,-99.99,FreeWX 2.04,2013-03-06 14:14:00,
2013-03-06 07:19:00,26.6,12.2,25.04,ENE,65,1.0,4.5,54,0.00,,,-99.99,FreeWX 2.04,2013-03-06 14:19:00,
2013-03-06 07:24:00,28.0,13.6,25.04,ENE,69,2.0,4.0,54,0.00,,,-99.99,FreeWX 2.04,2013-03-06 14:24:00,
2013-03-06 07:29:00,29.3,14.4,25.04,ENE,63,2.0,3.6,53,0.00,,,-99.99,FreeWX 2.04,2013-03-06 14:29:00,
2013-03-06 07:34:00,31.1,15.6,25.04,North,-999,0.0,3.6,52,0.00,,,-99.99,FreeWX 2.04,2013-03-06 14:34:00,
2013-03-06 07:39:00,32.2,15.6,25.04,North,-999,0.0,4.5,50,0.00,,,-99.99,FreeWX 2.04,2013-03-06 14:39:00,
2013-03-06 07:44:00,32.5,16.0,25.04,ENE,60,1.0,4.5,50,0.00,,,-99.99,FreeWX 2.04,2013-03-06 14:44:00,
2013-03-06 07:49:00,33.4,14.4,25.04,NE,48,2.0,4.9,45,0.00,,,-99.99,FreeWX 2.04,2013-03-06 14:49:00,
2013-03-06 07:54:00,34.3,13.1,25.04,NNE,15,4.0,6.3,41,0.00,,,-99.99,FreeWX 2.04,2013-03-06 14:54:00,
2013-03-06 07:59:00,35.2,13.3,25.04,North,355,4.0,6.9,40,0.00,,,-99.99,FreeWX 2.04,2013-03-06 14:59:00,
2013-03-06 08:04:00,36.1,13.6,25.07,North,1,3.0,5.4,39,0.00,,,-99.99,FreeWX 2.04,2013-03-06 15:04:00,
2013-03-06 08:10:00,36.3,13.1,25.07,North,350,2.0,4.5,38,0.00,,,-99.99,FreeWX 2.04,2013-03-06 15:10:00,
2013-03-06 08:15:00,37.0,12.6,25.07,NNW,340,2.0,3.1,36,0.00,,,-99.99,FreeWX 2.04,2013-03-06 15:15:00,
2013-03-06 08:20:00,36.9,11.1,25.07,NNW,340,1.0,3.6,34,0.00,,,-99.99,FreeWX 2.04,2013-03-06 15:20:00,
2013-03-06 08:25:00,37.0,12.0,25.07,NNW,328,1.0,4.9,35,0.00,,,-99.99,FreeWX 2.04,2013-03-06 15:25:00,
2013-03-06 08:30:00,37.6,11.8,25.07,NW,313,1.0,3.1,34,0.00,,,-99.99,FreeWX 2.04,2013-03-06 15:30:00,
2013-03-06 08:35:00,39.0,12.4,25.07,NW,309,1.0,3.6,33,0.00,,,-99.99,FreeWX 2.04,2013-03-06 15:35:00,
2013-03-06 08:40:00,39.0,11.7,25.07,NW,316,2.0,5.4,32,0.00,,,-99.99,FreeWX 2.04,2013-03-06 15:40:00,
2013-03-06 08:45:00,40.5,12.2,25.07,North,352,1.0,4.0,31,0.00,,,-99.99,FreeWX 2.04,2013-03-06 15:45:00,
2013-03-06 08:50:00,39.0,10.2,25.07,NNE,16,3.0,6.7,30,0.00,,,-99.99,FreeWX 2.04,2013-03-06 15:50:00,
2013-03-06 08:55:00,39.4,10.6,25.07,NNE,26,3.0,6.3,30,0.00,,,-99.99,FreeWX 2.04,2013-03-06 15:55:00,
2013-03-06 09:00:00,40.3,11.3,25.07,NE,42,2.0,4.5,30,0.00,,,-99.99,FreeWX 2.04,2013-03-06 16:00:00,
2013-03-06 09:05:00,40.8,11.1,25.07,NE,48,2.0,4.0,29,0.00,,,-99.99,FreeWX 2.04,2013-03-06 16:05:00,
2013-03-06 09:10:00,42.1,12.2,25.07,NE,48,1.0,4.0,29,0.00,,,-99.99,FreeWX 2.04,2013-03-06 16:10:00,
2013-03-06 09:15:00,41.9,11.1,25.07,NE,48,1.0,5.4,28,0.00,,,-99.99,FreeWX 2.04,2013-03-06 16:15:00,
2013-03-06 09:20:00,42.6,11.8,25.04,NE,45,1.0,4.0,28,0.00,,,-99.99,FreeWX 2.04,2013-03-06 16:20:00,
2013-03-06 09:25:00,43.5,12.6,25.04,NE,43,1.0,4.5,28,0.00,,,-99.99,FreeWX 2.04,2013-03-06 16:25:00,
2013-03-06 09:30:00,44.2,12.4,25.04,NE,43,1.0,3.6,27,0.00,,,-99.99,FreeWX 2.04,2013-03-06 16:30:00,
2013-03-06 09:35:00,44.1,10.6,25.04,NE,39,2.0,6.3,25,0.00,,,-99.99,FreeWX 2.04,2013-03-06 16:35:00,
2013-03-06 09:40:00,43.7,7.3,25.04,NE,48,3.0,5.8,22,0.00,,,-99.99,FreeWX 2.04,2013-03-06 16:40:00,
2013-03-06 09:45:00,44.2,7.9,25.04,ENE,72,3.0,4.9,22,0.00,,,-99.99,FreeWX 2.04,2013-03-06 16:45:00,
2013-03-06 09:50:00,44.8,6.3,25.04,ENE,71,3.0,6.9,20,0.00,,,-99.99,FreeWX 2.04,2013-03-06 16:50:00,
2013-03-06 09:55:00,45.5,5.7,25.04,NE,52,3.0,6.3,19,0.00,,,-99.99,FreeWX 2.04,2013-03-06 16:55:00,
2013-03-06 10:00:00,46.0,3.7,25.04,NE,43,2.0,4.5,17,0.00,,,-99.99,FreeWX 2.04,2013-03-06 17:00:00,
2013-03-06 10:05:00,46.0,3.7,25.04,NE,44,2.0,4.9,17,0.00,,,-99.99,FreeWX 2.04,2013-03-06 17:05:00,
2013-03-06 10:10:00,47.1,4.6,25.04,North,3,3.0,5.8,17,0.00,,,-99.99,FreeWX 2.04,2013-03-06 17:10:00,
2013-03-06 10:15:00,48.9,4.8,25.04,North,358,2.0,4.5,16,0.00,,,-99.99,FreeWX 2.04,2013-03-06 17:15:00,
2013-03-06 10:20:00,49.8,2.7,25.04,NE,35,2.0,5.4,14,0.00,,,-99.99,FreeWX 2.04,2013-03-06 17:20:00,
2013-03-06 10:25:00,49.1,1.9,25.04,NE,53,2.0,6.7,14,0.00,,,-99.99,FreeWX 2.04,2013-03-06 17:25:00,
2013-03-06 10:30:00,49.5,2.3,25.04,ENE,71,3.0,5.4,14,0.00,,,-99.99,FreeWX 2.04,2013-03-06 17:30:00,
2013-03-06 10:35:00,49.8,2.7,25.04,ENE,72,2.0,4.9,14,0.00,,,-99.99,FreeWX 2.04,2013-03-06 17:35:00,
2013-03-06 10:40:00,50.0,2.7,25.04,ENE,71,2.0,5.4,14,0.00,,,-99.99,FreeWX 2.04,2013-03-06 17:40:00,
2013-03-06 10:45:00,48.7,1.8,25.04,ESE,119,4.0,7.8,14,0.00,,,-99.99,FreeWX 2.04,2013-03-06 17:45:00,
2013-03-06 10:50:00,48.4,1.4,25.04,South,177,5.0,7.8,14,0.00,,,-99.99,FreeWX 2.04,2013-03-06 17:50:00,
2013-03-06 10:55:00,48.7,1.8,25.04,South,188,4.0,6.7,14,0.00,,,-99.99,FreeWX 2.04,2013-03-06 17:55:00,
2013-03-06 11:00:00,48.7,1.8,25.04,South,176,5.0,8.3,14,0.00,,,-99.99,FreeWX 2.04,2013-03-06 18:00:00,
2013-03-06 11:05:00,48.9,1.9,25.01,SSE,164,6.0,8.3,14,0.00,,,-99.99,FreeWX 2.04,2013-03-06 18:05:00,
2013-03-06 11:10:00,47.7,0.9,25.01,South,175,7.0,11.6,14,0.00,,,-99.99,FreeWX 2.04,2013-03-06 18:10:00,
2013-03-06 11:15:00,47.5,0.7,25.01,South,179,8.0,11.0,14,0.00,,,-99.99,FreeWX 2.04,2013-03-06 18:15:00,
2013-03-06 11:20:00,48.6,4.5,25.01,South,179,8.0,12.1,16,0.00,,,-99.99,FreeWX 2.04,2013-03-06 18:20:00,
2013-03-06 11:25:00,48.7,1.8,25.01,South,185,8.0,11.0,14,0.00,,,-99.99,FreeWX 2.04,2013-03-06 18:25:00,
2013-03-06 11:30:00,48.6,1.6,25.01,SSW,195,8.0,11.2,14,0.00,,,-99.99,FreeWX 2.04,2013-03-06 18:30:00,
2013-03-06 11:35:00,49.1,4.8,25.01,SSW,193,8.0,9.6,16,0.00,,,-99.99,FreeWX 2.04,2013-03-06 18:35:00,
2013-03-06 11:40:00,50.4,3.0,25.01,South,186,7.0,10.5,14,0.00,,,-99.99,FreeWX 2.04,2013-03-06 18:40:00,
2013-03-06 11:45:00,50.7,3.2,25.01,South,181,7.0,9.6,14,0.00,,,-99.99,FreeWX 2.04,2013-03-06 18:45:00,
2013-03-06 11:51:00,51.3,-1.5,25.01,South,180,6.0,10.1,11,0.00,,,-99.99,FreeWX 2.04,2013-03-06 18:51:00,
2013-03-06 11:56:00,50.9,-1.7,25.01,South,190,6.0,9.6,11,0.00,,,-99.99,FreeWX 2.04,2013-03-06 18:56:00,
2013-03-06 12:01:00,51.8,-0.9,25.01,SSW,196,5.0,7.4,11,0.00,,,-99.99,FreeWX 2.04,2013-03-06 19:01:00,
2013-03-06 12:06:00,52.3,-0.6,24.98,SSW,198,4.0,6.3,11,0.00,,,-99.99,FreeWX 2.04,2013-03-06 19:06:00,
2013-03-06 12:11:00,53.8,-99.9,24.98,SSW,199,3.0,6.3,-999,0.00,,,-99.99,FreeWX 2.04,2013-03-06 19:11:00,
2013-03-06 12:16:00,54.1,-99.9,24.98,SSW,195,3.0,7.8,-999,0.00,,,-99.99,FreeWX 2.04,2013-03-06 19:16:00,
2013-03-06 12:21:00,54.0,-99.9,24.98,SSE,167,4.0,8.7,-999,0.00,,,-99.99,FreeWX 2.04,2013-03-06 19:21:00,
2013-03-06 12:27:00,54.5,-99.9,24.98,SE,146,5.0,10.5,-999,0.00,,,-99.99,FreeWX 2.04,2013-03-06 19:27:00,
2013-03-06 12:32:00,55.4,-99.9,24.98,SSE,167,6.0,8.3,-999,0.00,,,-99.99,FreeWX 2.04,2013-03-06 19:32:00,
2013-03-06 12:37:00,55.2,-99.9,24.95,South,191,6.0,10.5,-999,0.00,,,-99.99,FreeWX 2.04,2013-03-06 19:37:00,
2013-03-06 12:42:00,54.9,-99.9,24.95,SSW,210,6.0,9.2,-999,0.00,,,-99.99,FreeWX 2.04,2013-03-06 19:42:00,
2013-03-06 12:47:00,56.1,-99.9,24.95,SW,215,6.0,8.7,-999,0.00,,,-99.99,FreeWX 2.04,2013-03-06 19:47:00,
2013-03-06 12:52:00,56.1,-99.9,24.95,SSW,210,7.0,12.1,-999,0.00,,,-99.99,FreeWX 2.04,2013-03-06 19:52:00,
2013-03-06 12:57:00,56.3,-99.9,24.95,SSW,195,8.0,11.2,-999,0.00,,,-99.99,FreeWX 2.04,2013-03-06 19:57:00,
2013-03-06 13:02:00,55.9,-99.9,24.95,South,182,8.0,11.2,-999,0.00,,,-99.99,FreeWX 2.04,2013-03-06 20:02:00,
2013-03-06 13:07:00,56.3,-99.9,24.95,South,177,8.0,11.6,-999,0.00,,,-99.99,FreeWX 2.04,2013-03-06 20:07:00,
2013-03-06 13:12:00,57.2,-99.9,24.95,South,177,8.0,12.5,-999,0.00,,,-99.99,FreeWX 2.04,2013-03-06 20:12:00,
2013-03-06 13:17:00,57.4,-99.9,24.95,South,182,10.0,15.9,-999,0.00,,,-99.99,FreeWX 2.04,2013-03-06 20:17:00,
2013-03-06 13:22:00,57.2,-99.9,24.95,South,187,10.0,13.0,-999,0.00,,,-99.99,FreeWX 2.04,2013-03-06 20:22:00,
2013-03-06 13:27:00,57.6,-99.9,24.95,South,187,9.0,13.0,-999,0.00,,,-99.99,FreeWX 2.04,2013-03-06 20:27:00,
2013-03-06 13:32:00,57.4,-99.9,24.95,South,189,10.0,16.3,-999,0.00,,,-99.99,FreeWX 2.04,2013-03-06 20:32:00,
2013-03-06 13:37:00,57.4,-99.9,24.92,SSW,192,11.0,15.9,-999,0.00,,,-99.99,FreeWX 2.04,2013-03-06 20:37:00,
2013-03-06 13:42:00,57.6,-99.9,24.92,South,191,12.0,16.3,-999,0.00,,,-99.99,FreeWX 2.04,2013-03-06 20:42:00,
2013-03-06 13:47:00,58.1,-99.9,24.92,South,190,13.0,19.5,-999,0.00,,,-99.99,FreeWX 2.04,2013-03-06 20:47:00,
2013-03-06 13:52:00,58.1,-99.9,24.92,South,188,14.0,18.6,-999,0.00,,,-99.99,FreeWX 2.04,2013-03-06 20:52:00,
2013-03-06 13:57:00,57.9,-99.9,24.92,South,190,13.0,17.2,-999,0.00,,,-99.99,FreeWX 2.04,2013-03-06 20:57:00,
2013-03-06 14:02:00,58.5,-99.9,24.92,SSW,196,12.0,16.8,-999,0.00,,,-99.99,FreeWX 2.04,2013-03-06 21:02:00,
2013-03-06 14:07:00,59.0,-99.9,24.92,SSW,199,12.0,15.9,-999,0.00,,,-99.99,FreeWX 2.04,2013-03-06 21:07:00,
2013-03-06 14:12:00,58.1,-99.9,24.92,SSW,196,13.0,21.0,-999,0.00,,,-99.99,FreeWX 2.04,2013-03-06 21:12:00,
2013-03-06 14:17:00,58.3,-99.9,24.92,SSW,200,14.0,18.6,-999,0.00,,,-99.99,FreeWX 2.04,2013-03-06 21:17:00,
2013-03-06 14:22:00,58.1,-99.9,24.92,SSW,201,14.0,19.9,-999,0.00,,,-99.99,FreeWX 2.04,2013-03-06 21:22:00,
2013-03-06 14:27:00,59.2,-99.9,24.92,SSW,210,14.0,18.6,-999,0.00,,,-99.99,FreeWX 2.04,2013-03-06 21:27:00,
2013-03-06 14:32:00,59.4,-99.9,24.92,SSW,211,13.0,19.5,-999,0.00,,,-99.99,FreeWX 2.04,2013-03-06 21:32:00,
2013-03-06 14:37:00,59.4,-99.9,24.92,South,190,12.0,14.8,-999,0.00,,,-99.99,FreeWX 2.04,2013-03-06 21:37:00,
2013-03-06 14:42:00,59.4,-99.9,24.92,South,180,11.0,14.3,-999,0.00,,,-99.99,FreeWX 2.04,2013-03-06 21:42:00,
2013-03-06 14:47:00,59.0,-99.9,24.92,South,189,9.0,11.2,-999,0.00,,,-99.99,FreeWX 2.04,2013-03-06 21:47:00,
2013-03-06 14:52:00,60.1,-99.9,24.92,South,187,8.0,11.6,-999,0.00,,,-99.99,FreeWX 2.04,2013-03-06 21:52:00,
2013-03-06 14:57:00,59.7,-99.9,24.92,South,174,7.0,9.6,-999,0.00,,,-99.99,FreeWX 2.04,2013-03-06 21:57:00,
2013-03-06 15:02:00,60.4,-99.9,24.92,South,177,6.0,8.7,-999,0.00,,,-99.99,FreeWX 2.04,2013-03-06 22:02:00,
2013-03-06 15:07:00,61.0,-99.9,24.92,South,178,7.0,12.1,-999,0.00,,,-99.99,FreeWX 2.04,2013-03-06 22:07:00,
2013-03-06 15:12:00,59.5,-99.9,24.92,South,177,8.0,12.1,-999,0.00,,,-99.99,FreeWX 2.04,2013-03-06 22:12:00,
2013-03-06 15:17:00,59.9,-99.9,24.92,South,176,8.0,11.6,-999,0.00,,,-99.99,FreeWX 2.04,2013-03-06 22:17:00,
2013-03-06 15:22:00,60.4,-99.9,24.92,SSE,167,9.0,13.9,-999,0.00,,,-99.99,FreeWX 2.04,2013-03-06 22:22:00,
2013-03-06 15:27:00,60.1,-99.9,24.92,SSE,168,10.0,13.9,-999,0.00,,,-99.99,FreeWX 2.04,2013-03-06 22:27:00,
2013-03-06 15:32:00,60.1,-99.9,24.92,South,175,9.0,11.6,-999,0.00,,,-99.99,FreeWX 2.04,2013-03-06 22:32:00,
2013-03-06 15:37:00,60.3,-99.9,24.92,South,174,7.0,10.5,-999,0.00,,,-99.99,FreeWX 2.04,2013-03-06 22:37:00,
2013-03-06 15:42:00,60.4,-99.9,24.92,SSE,167,7.0,12.1,-999,0.00,,,-99.99,FreeWX 2.04,2013-03-06 22:42:00,
2013-03-06 15:47:00,60.3,-99.9,24.92,South,185,6.0,10.1,-999,0.00,,,-99.99,FreeWX 2.04,2013-03-06 22:47:00,
2013-03-06 15:52:00,60.6,-99.9,24.92,SSW,201,6.0,8.7,-999,0.00,,,-99.99,FreeWX 2.04,2013-03-06 22:52:00,
2013-03-06 15:57:00,61.2,-99.9,24.92,SSW,193,5.0,6.9,-999,0.00,,,-99.99,FreeWX 2.04,2013-03-06 22:57:00,
2013-03-06 16:02:00,61.2,-99.9,24.92,SSW,192,4.0,6.3,-999,0.00,,,-99.99,FreeWX 2.04,2013-03-06 23:02:00,
2013-03-06 16:07:00,61.0,-99.9,24.89,SW,219,4.0,7.4,-999,0.00,,,-99.99,FreeWX 2.04,2013-03-06 23:07:00,
2013-03-06 16:12:00,61.5,-99.9,24.89,WNW,295,6.0,10.1,-999,0.00,,,-99.99,FreeWX 2.04,2013-03-06 23:12:00,
2013-03-06 16:17:00,60.8,-99.9,24.89,NNW,346,7.0,11.0,-999,0.00,,,-99.99,FreeWX 2.04,2013-03-06 23:17:00,
2013-03-06 16:22:00,61.5,-99.9,24.89,NW,317,6.0,11.6,-999,0.00,,,-99.99,FreeWX 2.04,2013-03-06 23:22:00,
2013-03-06 16:27:00,61.0,-99.9,24.89,WNW,289,7.0,11.6,-999,0.00,,,-99.99,FreeWX 2.04,2013-03-06 23:27:00,
2013-03-06 16:32:00,60.8,-99.9,24.89,West,281,7.0,11.2,-999,0.00,,,-99.99,FreeWX 2.04,2013-03-06 23:32:00,
2013-03-06 16:37:00,61.3,-99.9,24.89,West,264,7.0,12.5,-999,0.00,,,-99.99,FreeWX 2.04,2013-03-06 23:37:00,
2013-03-06 16:42:00,60.6,-99.9,24.89,WSW,250,9.0,13.9,-999,0.00,,,-99.99,FreeWX 2.04,2013-03-06 23:42:00,
2013-03-06 16:47:00,61.3,-99.9,24.89,WSW,250,8.0,11.6,-999,0.00,,,-99.99,FreeWX 2.04,2013-03-06 23:47:00,
2013-03-06 16:52:00,59.9,-99.9,24.89,West,269,7.0,12.5,-999,0.00,,,-99.99,FreeWX 2.04,2013-03-06 23:52:00,
2013-03-06 16:57:00,59.2,-99.9,24.89,WSW,252,8.0,12.5,-999,0.00,,,-99.99,FreeWX 2.04,2013-03-06 23:57:00,
2013-03-06 17:02:00,58.6,-99.9,24.89,SW,230,9.0,11.6,-999,0.00,,,-99.99,FreeWX 2.04,2013-03-07 00:02:00,
2013-03-06 17:07:00,58.1,-99.9,24.89,WSW,237,8.0,11.6,-999,0.00,,,-99.99,FreeWX 2.04,2013-03-07 00:07:00,
2013-03-06 17:12:00,57.7,-99.9,24.89,SW,234,9.0,12.1,-999,0.00,,,-99.99,FreeWX 2.04,2013-03-07 00:12:00,
2013-03-06 17:17:00,57.4,-99.9,24.89,SW,229,8.0,10.5,-999,0.00,,,-99.99,FreeWX 2.04,2013-03-07 00:17:00,
2013-03-06 17:22:00,57.6,-99.9,24.89,SW,214,6.0,7.4,-999,0.00,,,-99.99,FreeWX 2.04,2013-03-07 00:22:00,
2013-03-06 17:28:00,57.6,-99.9,24.89,SSW,203,6.0,7.4,-999,0.00,,,-99.99,FreeWX 2.04,2013-03-07 00:28:00,
2013-03-06 17:33:00,57.4,-99.9,24.89,SSW,199,5.0,7.4,-999,0.00,,,-99.99,FreeWX 2.04,2013-03-07 00:33:00,
2013-03-06 17:38:00,57.0,-99.9,24.89,South,191,4.0,4.9,-999,0.00,,,-99.99,FreeWX 2.04,2013-03-07 00:38:00,
2013-03-06 17:43:00,56.5,-99.9,24.89,South,187,3.0,4.5,-999,0.00,,,-99.99,FreeWX 2.04,2013-03-07 00:43:00,
2013-03-06 17:48:00,56.1,-99.9,24.89,South,186,2.0,4.9,-999,0.00,,,-99.99,FreeWX 2.04,2013-03-07 00:48:00,
2013-03-06 17:58:00,54.9,-99.9,24.89,South,191,1.0,4.5,-999,0.00,,,-99.99,FreeWX 2.04,2013-03-07 00:58:00,
2013-03-06 18:03:00,54.1,-99.9,24.89,SSW,197,2.0,3.6,-999,0.00,,,-99.99,FreeWX 2.04,2013-03-07 01:03:00,
2013-03-06 18:08:00,54.0,-99.9,24.89,SSW,202,2.0,4.5,-999,0.00,,,-99.99,FreeWX 2.04,2013-03-07 01:08:00,
2013-03-06 18:13:00,53.2,-99.9,24.89,SSW,202,2.0,4.9,-999,0.00,,,-99.99,FreeWX 2.04,2013-03-07 01:13:00,
2013-03-06 18:18:00,52.7,-0.2,24.89,SSW,196,2.0,7.4,11,0.00,,,-99.99,FreeWX 2.04,2013-03-07 01:18:00,
2013-03-06 18:23:00,51.8,-0.9,24.89,SSE,151,3.0,6.7,11,0.00,,,-99.99,FreeWX 2.04,2013-03-07 01:23:00,
2013-03-06 18:28:00,52.2,-0.8,24.89,ESE,113,3.0,5.4,11,0.00,,,-99.99,FreeWX 2.04,2013-03-07 01:28:00,
2013-03-06 18:33:00,52.2,-0.8,24.89,ESE,108,4.0,6.9,11,0.00,,,-99.99,FreeWX 2.04,2013-03-07 01:33:00,
2013-03-06 18:38:00,51.8,-0.9,24.89,ESE,106,3.0,4.5,11,0.00,,,-99.99,FreeWX 2.04,2013-03-07 01:38:00,
2013-03-06 18:43:00,51.8,2.5,24.89,ESE,105,2.0,5.8,13,0.00,,,-99.99,FreeWX 2.04,2013-03-07 01:43:00,
2013-03-06 18:48:00,51.4,2.3,24.89,ESE,103,2.0,4.9,13,0.00,,,-99.99,FreeWX 2.04,2013-03-07 01:48:00,
2013-03-06 18:53:00,51.6,2.5,24.89,East,101,1.0,3.6,13,0.00,,,-99.99,FreeWX 2.04,2013-03-07 01:53:00,
2013-03-06 18:58:00,51.4,2.3,24.89,East,99,1.0,3.6,13,0.00,,,-99.99,FreeWX 2.04,2013-03-07 01:58:00,
2013-03-06 19:03:00,51.3,2.1,24.89,East,98,1.0,4.5,13,0.00,,,-99.99,FreeWX 2.04,2013-03-07 02:03:00,
2013-03-06 19:08:00,51.1,1.9,24.92,East,97,2.0,4.5,13,0.00,,,-99.99,FreeWX 2.04,2013-03-07 02:08:00,
2013-03-06 19:13:00,51.1,1.9,24.92,East,96,1.0,4.5,13,0.00,,,-99.99,FreeWX 2.04,2013-03-07 02:13:00,
2013-03-06 19:18:00,50.7,3.2,24.92,East,96,2.0,4.0,14,0.00,,,-99.99,FreeWX 2.04,2013-03-07 02:18:00,
2013-03-06 19:23:00,50.5,3.2,24.92,East,96,1.0,3.1,14,0.00,,,-99.99,FreeWX 2.04,2013-03-07 02:23:00,
2013-03-06 19:28:00,50.7,3.2,24.92,North,-999,0.0,0.0,14,0.00,,,-99.99,FreeWX 2.04,2013-03-07 02:28:00,
2013-03-06 19:33:00,51.6,2.5,24.92,East,94,1.0,4.0,13,0.00,,,-99.99,FreeWX 2.04,2013-03-07 02:33:00,
2013-03-06 19:38:00,51.4,2.3,24.92,East,93,2.0,4.5,13,0.00,,,-99.99,FreeWX 2.04,2013-03-07 02:38:00,
2013-03-06 19:43:00,51.3,2.1,24.92,East,93,2.0,4.9,13,0.00,,,-99.99,FreeWX 2.04,2013-03-07 02:43:00,
2013-03-06 19:48:00,50.4,3.0,24.92,East,93,2.0,4.9,14,0.00,,,-99.99,FreeWX 2.04,2013-03-07 02:48:00,
2013-03-06 19:53:00,49.6,2.5,24.92,East,93,1.0,3.6,14,0.00,,,-99.99,FreeWX 2.04,2013-03-07 02:53:00,
2013-03-06 19:58:00,48.9,1.9,24.92,East,92,1.0,4.0,14,0.00,,,-99.99,FreeWX 2.04,2013-03-07 02:58:00,
2013-03-06 20:03:00,49.3,2.1,24.92,North,-999,0.0,0.0,14,0.00,,,-99.99,FreeWX 2.04,2013-03-07 03:03:00,
2013-03-06 20:08:00,49.3,2.1,24.92,North,-999,0.0,4.9,14,0.00,,,-99.99,FreeWX 2.04,2013-03-07 03:08:00,
2013-03-06 20:13:00,49.5,2.3,24.92,East,90,1.0,5.4,14,0.00,,,-99.99,FreeWX 2.04,2013-03-07 03:13:00,
2013-03-06 20:18:00,49.1,1.9,24.92,East,90,1.0,4.5,14,0.00,,,-99.99,FreeWX 2.04,2013-03-07 03:18:00,
2013-03-06 20:23:00,49.3,2.1,24.89,East,90,1.0,4.0,14,0.00,,,-99.99,FreeWX 2.04,2013-03-07 03:23:00,
2013-03-06 20:28:00,48.9,1.9,24.89,East,90,1.0,4.0,14,0.00,,,-99.99,FreeWX 2.04,2013-03-07 03:28:00,
2013-03-06 20:33:00,49.5,2.3,24.89,East,90,1.0,3.6,14,0.00,,,-99.99,FreeWX 2.04,2013-03-07 03:33:00,
2013-03-06 20:38:00,48.9,1.9,24.92,East,90,2.0,5.4,14,0.00,,,-99.99,FreeWX 2.04,2013-03-07 03:38:00,
2013-03-06 20:43:00,49.1,1.9,24.92,East,87,4.0,5.8,14,0.00,,,-99.99,FreeWX 2.04,2013-03-07 03:43:00,
2013-03-06 20:48:00,49.6,2.5,24.92,East,84,3.0,4.0,14,0.00,,,-99.99,FreeWX 2.04,2013-03-07 03:48:00,
2013-03-06 20:54:00,48.2,1.2,24.89,East,82,4.0,6.7,14,0.00,,,-99.99,FreeWX 2.04,2013-03-07 03:54:00,
2013-03-06 20:59:00,50.2,2.8,24.89,East,82,4.0,4.9,14,0.00,,,-99.99,FreeWX 2.04,2013-03-07 03:59:00,
2013-03-06 21:04:00,49.3,2.1,24.89,East,82,3.0,5.8,14,0.00,,,-99.99,FreeWX 2.04,2013-03-07 04:04:00,
2013-03-06 21:09:00,48.9,1.9,24.92,East,82,2.0,5.4,14,0.00,,,-99.99,FreeWX 2.04,2013-03-07 04:09:00,
2013-03-06 21:14:00,48.9,1.9,24.92,East,82,1.0,5.4,14,0.00,,,-99.99,FreeWX 2.04,2013-03-07 04:14:00,
2013-03-06 21:19:00,49.5,2.3,24.92,East,82,3.0,6.3,14,0.00,,,-99.99,FreeWX 2.04,2013-03-07 04:19:00,
2013-03-06 21:24:00,50.7,-1.8,24.92,East,82,4.0,4.9,11,0.00,,,-99.99,FreeWX 2.04,2013-03-07 04:24:00,
2013-03-06 21:29:00,50.2,-2.2,24.92,East,83,3.0,5.8,11,0.00,,,-99.99,FreeWX 2.04,2013-03-07 04:29:00,
2013-03-06 21:34:00,49.1,-3.1,24.92,East,79,3.0,6.7,11,0.00,,,-99.99,FreeWX 2.04,2013-03-07 04:34:00,
2013-03-06 21:39:00,49.3,-2.9,24.92,ENE,66,4.0,6.7,11,0.00,,,-99.99,FreeWX 2.04,2013-03-07 04:39:00,
2013-03-06 21:44:00,50.7,-1.8,24.92,NE,56,4.0,4.5,11,0.00,,,-99.99,FreeWX 2.04,2013-03-07 04:44:00,
2013-03-06 21:49:00,49.3,-2.9,24.89,NE,54,3.0,6.7,11,0.00,,,-99.99,FreeWX 2.04,2013-03-07 04:49:00,
2013-03-06 21:54:00,48.6,-3.5,24.89,NE,51,3.0,5.4,11,0.00,,,-99.99,FreeWX 2.04,2013-03-07 04:54:00,
2013-03-06 21:59:00,49.3,-2.9,24.89,NE,49,2.0,6.7,11,0.00,,,-99.99,FreeWX 2.04,2013-03-07 04:59:00,
2013-03-06 22:04:00,50.4,-2.2,24.89,NE,49,2.0,4.0,11,0.00,,,-99.99,FreeWX 2.04,2013-03-07 05:04:00,
2013-03-06 22:09:00,51.1,-1.5,24.89,NE,49,2.0,6.3,11,0.00,,,-99.99,FreeWX 2.04,2013-03-07 05:09:00,
2013-03-06 22:14:00,51.4,-1.3,24.89,NE,49,4.0,5.4,11,0.00,,,-99.99,FreeWX 2.04,2013-03-07 05:14:00,
2013-03-06 22:19:00,51.1,-1.5,24.89,NE,49,4.0,5.8,11,0.00,,,-99.99,FreeWX 2.04,2013-03-07 05:19:00,
2013-03-06 22:24:00,51.4,-1.3,24.89,NE,49,2.0,4.0,11,0.00,,,-99.99,FreeWX 2.04,2013-03-07 05:24:00,
2013-03-06 22:29:00,50.9,-1.7,24.89,NE,49,2.0,6.7,11,0.00,,,-99.99,FreeWX 2.04,2013-03-07 05:29:00,
2013-03-06 22:34:00,50.2,-2.2,24.89,NE,49,3.0,6.7,11,0.00,,,-99.99,FreeWX 2.04,2013-03-07 05:34:00,
2013-03-06 22:39:00,50.0,-2.4,24.89,NE,49,4.0,6.3,11,0.00,,,-99.99,FreeWX 2.04,2013-03-07 05:39:00,
2013-03-06 22:44:00,49.6,-2.7,24.89,NE,49,4.0,6.9,11,0.00,,,-99.99,FreeWX 2.04,2013-03-07 05:44:00,
2013-03-06 22:49:00,49.6,-2.7,24.89,NE,48,5.0,7.4,11,0.00,,,-99.99,FreeWX 2.04,2013-03-07 05:49:00,
2013-03-06 22:54:00,47.5,-4.4,24.89,NE,48,5.0,7.4,11,0.00,,,-99.99,FreeWX 2.04,2013-03-07 05:54:00,
2013-03-06 22:59:00,46.4,-0.2,24.89,NE,47,3.0,4.0,14,0.00,,,-99.99,FreeWX 2.04,2013-03-07 05:59:00,
2013-03-06 23:04:00,46.0,-0.4,24.89,NE,47,2.0,4.0,14,0.00,,,-99.99,FreeWX 2.04,2013-03-07 06:04:00,
2013-03-06 23:09:00,45.3,0.5,24.89,NE,48,1.0,4.0,15,0.00,,,-99.99,FreeWX 2.04,2013-03-07 06:09:00,
2013-03-06 23:14:00,47.5,0.7,24.89,NE,48,2.0,5.8,14,0.00,,,-99.99,FreeWX 2.04,2013-03-07 06:14:00,
2013-03-06 23:19:00,48.7,1.8,24.89,NE,48,4.0,6.7,14,0.00,,,-99.99,FreeWX 2.04,2013-03-07 06:19:00,
2013-03-06 23:24:00,49.3,-2.9,24.89,NE,47,4.0,6.9,11,0.00,,,-99.99,FreeWX 2.04,2013-03-07 06:24:00,
2013-03-06 23:29:00,48.9,-3.3,24.89,NE,47,4.0,6.7,11,0.00,,,-99.99,FreeWX 2.04,2013-03-07 06:29:00,
2013-03-06 23:34:00,47.1,0.5,24.89,NE,55,4.0,6.7,14,0.00,,,-99.99,FreeWX 2.04,2013-03-07 06:34:00,
2013-03-06 23:39:00,45.3,0.5,24.89,ENE,73,2.0,4.0,15,0.00,,,-99.99,FreeWX 2.04,2013-03-07 06:39:00,
2013-03-06 23:44:00,45.0,0.1,24.89,East,80,2.0,3.6,15,0.00,,,-99.99,FreeWX 2.04,2013-03-07 06:44:00,
2013-03-06 23:49:00,44.8,0.0,24.89,East,81,1.0,3.1,15,0.00,,,-99.99,FreeWX 2.04,2013-03-07 06:49:00,
2013-03-06 23:54:00,45.3,0.5,24.89,North,-999,0.0,3.1,15,0.00,,,-99.99,FreeWX 2.04,2013-03-07 06:54:00,
2013-03-06 23:59:00,46.4,-0.2,24.89,North,-999,0.0,3.1,14,0.00,,,-99.99,FreeWX 2.04,2013-03-07 06:59:00,